KCRP/CRP METAR and TAF weather

Enter ICAO airport designator
Station Type Date Time Source
KCRP METAR 2021/05/13 06:51 UTC NOAA

KCRP 130651Z 01012KT 10SM OVC022 19/16 A3020 RMK AO2 SLP226 T01940161


Station Type Date Time Source
KCRP Decoded METAR 2021/05/13 06:51 UTC NOAA

CORPUS CHRISTI INTERNATIONAL , TX, United States (KCRP) 27-46N 97-31W 16M
May 13, 2021 - 02:51 AM EDT / 2021.05.13 0651 UTC
Wind: from the N (010 degrees) at 14 MPH (12 KT):0
Visibility: 10 mile(s):0
Sky conditions: overcast
Temperature: 66.9 F (19.4 C)
Dew Point: 61.0 F (16.1 C)
Relative Humidity: 81%
Pressure (altimeter): 30.2 in. Hg (1022 hPa)
ob: KCRP 130651Z 01012KT 10SM OVC022 19/16 A3020 RMK AO2 SLP226 T01940161
cycle: 7

Station Type Date Time Source
KCRP TAF 2021/05/13 06:27 UTC NOAA

TAF KCRP 130524Z 1306/1406 03013G21KT P6SM BKN025 OVC050
FM131900 04012KT P6SM BKN035
FM140000 07009KT P6SM SCT035 OVC050

Example: see airport list